sensor_id;sensor_type;location;lat;lon;timestamp;pressure;altitude;pressure_sealevel;temperature;humidity
61757;BME280;57225;61.460;24.060;2022-07-01T00:01:53;100680.53;;;16.97;77.77
61757;BME280;57225;61.460;24.060;2022-07-01T00:04:38;100675.44;;;16.92;77.94
61757;BME280;57225;61.460;24.060;2022-07-01T00:07:22;100678.66;;;16.91;78.05
61757;BME280;57225;61.460;24.060;2022-07-01T00:10:07;100671.53;;;16.86;78.00
61757;BME280;57225;61.460;24.060;2022-07-01T00:12:51;100671.53;;;16.86;78.12
61757;BME280;57225;61.460;24.060;2022-07-01T00:15:35;100674.41;;;16.82;78.52
61757;BME280;57225;61.460;24.060;2022-07-01T00:18:19;100679.22;;;16.82;78.92
61757;BME280;57225;61.460;24.060;2022-07-01T00:21:05;100681.84;;;16.73;79.17
61757;BME280;57225;61.460;24.060;2022-07-01T00:23:49;100679.03;;;16.73;79.03
61757;BME280;57225;61.460;24.060;2022-07-01T00:26:34;100679.81;;;16.73;79.22
61757;BME280;57225;61.460;24.060;2022-07-01T00:29:18;100676.25;;;16.69;79.44
61757;BME280;57225;61.460;24.060;2022-07-01T00:32:03;100679.16;;;16.66;79.62
61757;BME280;57225;61.460;24.060;2022-07-01T00:34:47;100672.81;;;16.62;79.08
61757;BME280;57225;61.460;24.060;2022-07-01T00:37:31;100669.22;;;16.58;79.82
61757;BME280;57225;61.460;24.060;2022-07-01T00:40:15;100680.13;;;16.56;80.00
61757;BME280;57225;61.460;24.060;2022-07-01T00:43:00;100676.56;;;16.52;80.21
61757;BME280;57225;61.460;24.060;2022-07-01T00:45:48;100680.19;;;16.52;80.24
61757;BME280;57225;61.460;24.060;2022-07-01T00:48:34;100685.00;;;16.52;79.86
61757;BME280;57225;61.460;24.060;2022-07-01T00:51:19;100685.47;;;16.50;80.20
61757;BME280;57225;61.460;24.060;2022-07-01T00:54:04;100683.06;;;16.48;79.52
61757;BME280;57225;61.460;24.060;2022-07-01T00:56:48;100679.16;;;16.42;79.85
61757;BME280;57225;61.460;24.060;2022-07-01T00:59:33;100678.72;;;16.44;80.23
61757;BME280;57225;61.460;24.060;2022-07-01T01:02:19;100679.66;;;16.37;80.96
61757;BME280;57225;61.460;24.060;2022-07-01T01:05:07;100694.06;;;16.39;80.98
61757;BME280;57225;61.460;24.060;2022-07-01T01:07:52;100687.22;;;16.40;80.79
61757;BME280;57225;61.460;24.060;2022-07-01T01:10:37;100691.69;;;16.38;80.57
61757;BME280;57225;61.460;24.060;2022-07-01T01:13:21;100683.03;;;16.29;81.62
61757;BME280;57225;61.460;24.060;2022-07-01T01:16:06;100678.19;;;16.29;81.25
61757;BME280;57225;61.460;24.060;2022-07-01T01:18:51;100696.66;;;16.30;80.68
61757;BME280;57225;61.460;24.060;2022-07-01T01:21:35;100689.78;;;16.31;80.62
61757;BME280;57225;61.460;24.060;2022-07-01T01:24:20;100691.47;;;16.29;81.25
61757;BME280;57225;61.460;24.060;2022-07-01T01:27:04;100681.00;;;16.29;81.15
61757;BME280;57225;61.460;24.060;2022-07-01T01:29:49;100690.16;;;16.33;81.28
61757;BME280;57225;61.460;24.060;2022-07-01T01:32:34;100671.34;;;16.30;81.78
61757;BME280;57225;61.460;24.060;2022-07-01T01:35:19;100675.25;;;16.36;81.98
61757;BME280;57225;61.460;24.060;2022-07-01T01:38:03;100674.09;;;16.34;82.13
61757;BME280;57225;61.460;24.060;2022-07-01T01:40:47;100678.88;;;16.37;82.76
61757;BME280;57225;61.460;24.060;2022-07-01T01:43:33;100686.13;;;16.34;83.30
61757;BME280;57225;61.460;24.060;2022-07-01T01:46:20;100690.16;;;16.33;84.11
61757;BME280;57225;61.460;24.060;2022-07-01T01:49:05;100681.72;;;16.33;83.36
61757;BME280;57225;61.460;24.060;2022-07-01T01:51:50;100678.91;;;16.33;82.87
61757;BME280;57225;61.460;24.060;2022-07-01T01:54:34;100682.53;;;16.34;82.98
61757;BME280;57225;61.460;24.060;2022-07-01T01:57:20;100679.28;;;16.35;83.61
61757;BME280;57225;61.460;24.060;2022-07-01T02:00:08;100683.75;;;16.33;84.06
61757;BME280;57225;61.460;24.060;2022-07-01T02:02:52;100678.91;;;16.33;84.39
61757;BME280;57225;61.460;24.060;2022-07-01T02:05:37;100685.28;;;16.37;84.33
61757;BME280;57225;61.460;24.060;2022-07-01T02:08:21;100673.28;;;16.33;84.37
61757;BME280;57225;61.460;24.060;2022-07-01T02:11:07;100680.38;;;16.41;84.07
61757;BME280;57225;61.460;24.060;2022-07-01T02:13:51;100681.59;;;16.40;83.92
61757;BME280;57225;61.460;24.060;2022-07-01T02:16:35;100689.63;;;16.42;83.45
61757;BME280;57225;61.460;24.060;2022-07-01T02:19:20;100687.16;;;16.44;83.38
61757;BME280;57225;61.460;24.060;2022-07-01T02:22:04;100686.69;;;16.49;82.65
61757;BME280;57225;61.460;24.060;2022-07-01T02:24:49;100686.09;;;16.58;83.30
61757;BME280;57225;61.460;24.060;2022-07-01T02:27:33;100690.50;;;16.59;82.50
61757;BME280;57225;61.460;24.060;2022-07-01T02:30:18;100698.44;;;16.67;82.72
61757;BME280;57225;61.460;24.060;2022-07-01T02:33:06;100695.03;;;16.76;81.72
61757;BME280;57225;61.460;24.060;2022-07-01T02:35:50;100690.81;;;16.87;80.94
61757;BME280;57225;61.460;24.060;2022-07-01T02:38:34;100689.38;;;16.99;82.30
61757;BME280;57225;61.460;24.060;2022-07-01T02:41:19;100692.75;;;17.10;81.44
61757;BME280;57225;61.460;24.060;2022-07-01T02:44:03;100696.56;;;17.20;81.11
61757;BME280;57225;61.460;24.060;2022-07-01T02:46:48;100711.53;;;17.37;81.16
61757;BME280;57225;61.460;24.060;2022-07-01T02:49:32;100700.75;;;17.51;81.25
61757;BME280;57225;61.460;24.060;2022-07-01T02:52:17;100696.50;;;17.59;81.18
61757;BME280;57225;61.460;24.060;2022-07-01T02:55:02;100699.84;;;17.74;81.18
61757;BME280;57225;61.460;24.060;2022-07-01T02:57:47;100699.94;;;17.87;80.12
61757;BME280;57225;61.460;24.060;2022-07-01T03:00:35;100697.06;;;18.06;80.05
61757;BME280;57225;61.460;24.060;2022-07-01T03:03:20;100695.81;;;18.24;78.99
61757;BME280;57225;61.460;24.060;2022-07-01T03:06:05;100696.16;;;18.42;78.14
61757;BME280;57225;61.460;24.060;2022-07-01T03:08:49;100700.91;;;18.61;77.04
61757;BME280;57225;61.460;24.060;2022-07-01T03:11:33;100699.31;;;18.76;76.43
61757;BME280;57225;61.460;24.060;2022-07-01T03:14:18;100693.34;;;18.87;75.23
61757;BME280;57225;61.460;24.060;2022-07-01T03:17:02;100690.09;;;18.88;73.67
61757;BME280;57225;61.460;24.060;2022-07-01T03:19:47;100693.41;;;19.00;73.80
61757;BME280;57225;61.460;24.060;2022-07-01T03:22:32;100694.44;;;19.06;72.88
61757;BME280;57225;61.460;24.060;2022-07-01T03:25:16;100696.50;;;19.18;71.03
61757;BME280;57225;61.460;24.060;2022-07-01T03:28:01;100685.19;;;19.18;70.87
61757;BME280;57225;61.460;24.060;2022-07-01T03:30:47;100695.94;;;19.23;69.05
61757;BME280;57225;61.460;24.060;2022-07-01T03:33:31;100687.47;;;19.23;69.45
61757;BME280;57225;61.460;24.060;2022-07-01T03:36:15;100689.28;;;19.29;69.48
61757;BME280;57225;61.460;24.060;2022-07-01T03:39:00;100684.78;;;19.32;69.16
61757;BME280;57225;61.460;24.060;2022-07-01T03:41:47;100693.28;;;19.45;68.17
61757;BME280;57225;61.460;24.060;2022-07-01T03:44:31;100693.28;;;19.45;69.29
61757;BME280;57225;61.460;24.060;2022-07-01T03:47:16;100689.94;;;19.62;68.22
61757;BME280;57225;61.460;24.060;2022-07-01T03:50:00;100702.25;;;19.94;65.22
61757;BME280;57225;61.460;24.060;2022-07-01T03:52:44;100706.53;;;20.36;64.46
61757;BME280;57225;61.460;24.060;2022-07-01T03:55:28;100714.53;;;20.98;62.24
61757;BME280;57225;61.460;24.060;2022-07-01T03:58:13;100706.91;;;21.29;59.64
61757;BME280;57225;61.460;24.060;2022-07-01T04:00:57;100714.38;;;21.45;59.26
61757;BME280;57225;61.460;24.060;2022-07-01T04:03:42;100713.69;;;21.32;59.67
61757;BME280;57225;61.460;24.060;2022-07-01T04:06:26;100721.56;;;21.15;60.19
61757;BME280;57225;61.460;24.060;2022-07-01T04:09:11;100715.63;;;21.00;60.99
61757;BME280;57225;61.460;24.060;2022-07-01T04:11:56;100717.41;;;20.85;60.86
61757;BME280;57225;61.460;24.060;2022-07-01T04:14:41;100712.66;;;20.82;61.65
61757;BME280;57225;61.460;24.060;2022-07-01T04:17:26;100704.88;;;20.95;60.39
61757;BME280;57225;61.460;24.060;2022-07-01T04:20:11;100707.53;;;20.90;60.62
61757;BME280;57225;61.460;24.060;2022-07-01T04:22:55;100701.91;;;20.77;61.38
61757;BME280;57225;61.460;24.060;2022-07-01T04:25:40;100685.25;;;20.79;60.95
61757;BME280;57225;61.460;24.060;2022-07-01T04:28:24;100688.06;;;20.79;59.72
61757;BME280;57225;61.460;24.060;2022-07-01T04:31:08;100697.03;;;20.99;59.41
61757;BME280;57225;61.460;24.060;2022-07-01T04:33:53;100701.00;;;21.02;59.36
61757;BME280;57225;61.460;24.060;2022-07-01T04:36:37;100703.53;;;21.21;59.42
61757;BME280;57225;61.460;24.060;2022-07-01T04:39:21;100696.47;;;21.26;58.61
61757;BME280;57225;61.460;24.060;2022-07-01T04:42:07;100698.91;;;21.37;58.19
61757;BME280;57225;61.460;24.060;2022-07-01T04:44:51;100694.41;;;21.48;58.05
61757;BME280;57225;61.460;24.060;2022-07-01T04:47:35;100702.75;;;21.83;58.76
61757;BME280;57225;61.460;24.060;2022-07-01T04:50:20;100702.44;;;22.21;55.51
61757;BME280;57225;61.460;24.060;2022-07-01T04:53:04;100704.41;;;22.42;56.64
61757;BME280;57225;61.460;24.060;2022-07-01T04:55:48;100704.09;;;22.49;56.64
61757;BME280;57225;61.460;24.060;2022-07-01T04:58:32;100699.09;;;22.80;53.84
61757;BME280;57225;61.460;24.060;2022-07-01T05:01:16;100700.75;;;23.60;51.49
61757;BME280;57225;61.460;24.060;2022-07-01T05:04:01;100707.81;;;23.74;51.27
61757;BME280;57225;61.460;24.060;2022-07-01T05:06:46;100699.53;;;24.51;48.44
61757;BME280;57225;61.460;24.060;2022-07-01T05:09:30;100702.41;;;25.86;45.70
61757;BME280;57225;61.460;24.060;2022-07-01T05:12:14;100705.72;;;26.49;44.47
61757;BME280;57225;61.460;24.060;2022-07-01T05:14:59;100698.94;;;27.13;43.00
61757;BME280;57225;61.460;24.060;2022-07-01T05:17:43;100706.06;;;26.97;42.72
61757;BME280;57225;61.460;24.060;2022-07-01T05:20:46;100714.16;;;26.23;46.27
61757;BME280;57225;61.460;24.060;2022-07-01T05:23:49;100711.78;;;25.57;47.55
61757;BME280;57225;61.460;24.060;2022-07-01T05:26:33;100708.69;;;25.17;48.46
61757;BME280;57225;61.460;24.060;2022-07-01T05:29:18;100707.41;;;24.56;49.23
61757;BME280;57225;61.460;24.060;2022-07-01T05:32:02;100709.88;;;24.15;50.75
61757;BME280;57225;61.460;24.060;2022-07-01T05:34:47;100698.69;;;23.70;50.49
61757;BME280;57225;61.460;24.060;2022-07-01T05:37:31;100696.19;;;23.44;54.79
61757;BME280;57225;61.460;24.060;2022-07-01T05:40:15;100703.78;;;23.38;51.97
61757;BME280;57225;61.460;24.060;2022-07-01T05:43:00;100707.06;;;23.46;52.93
61757;BME280;57225;61.460;24.060;2022-07-01T05:45:44;100700.63;;;23.36;53.16
61757;BME280;57225;61.460;24.060;2022-07-01T05:48:29;100717.69;;;23.96;52.30
61757;BME280;57225;61.460;24.060;2022-07-01T05:51:13;100706.94;;;24.33;49.51
61757;BME280;57225;61.460;24.060;2022-07-01T05:53:58;100706.09;;;24.66;52.41
61757;BME280;57225;61.460;24.060;2022-07-01T05:56:42;100711.91;;;24.95;51.72
61757;BME280;57225;61.460;24.060;2022-07-01T05:59:27;100712.63;;;24.81;48.78
61757;BME280;57225;61.460;24.060;2022-07-01T06:02:11;100717.63;;;24.86;51.72
61757;BME280;57225;61.460;24.060;2022-07-01T06:04:55;100713.06;;;24.65;51.50
61757;BME280;57225;61.460;24.060;2022-07-01T06:07:41;100719.84;;;24.67;51.67
61757;BME280;57225;61.460;24.060;2022-07-01T06:10:25;100715.44;;;24.90;52.19
61757;BME280;57225;61.460;24.060;2022-07-01T06:13:09;100723.16;;;25.13;52.83
61757;BME280;57225;61.460;24.060;2022-07-01T06:15:54;100718.75;;;25.27;51.69
61757;BME280;57225;61.460;24.060;2022-07-01T06:18:41;100715.13;;;25.71;49.21
61757;BME280;57225;61.460;24.060;2022-07-01T06:21:25;100717.44;;;26.01;51.98
61757;BME280;57225;61.460;24.060;2022-07-01T06:24:10;100707.75;;;26.14;51.32
61757;BME280;57225;61.460;24.060;2022-07-01T06:26:54;100714.28;;;25.99;49.15
61757;BME280;57225;61.460;24.060;2022-07-01T06:29:38;100708.69;;;26.40;50.07
61757;BME280;57225;61.460;24.060;2022-07-01T06:32:22;100712.94;;;26.65;50.98
61757;BME280;57225;61.460;24.060;2022-07-01T06:35:07;100715.00;;;26.85;49.52
61757;BME280;57225;61.460;24.060;2022-07-01T06:37:52;100708.88;;;26.92;47.56
61757;BME280;57225;61.460;24.060;2022-07-01T06:40:36;100708.84;;;26.71;48.14
61757;BME280;57225;61.460;24.060;2022-07-01T06:43:21;100712.00;;;26.73;46.28
61757;BME280;57225;61.460;24.060;2022-07-01T06:46:05;100710.56;;;26.83;46.36
61757;BME280;57225;61.460;24.060;2022-07-01T06:48:49;100706.84;;;26.98;47.61
61757;BME280;57225;61.460;24.060;2022-07-01T06:51:34;100711.84;;;27.03;47.86
61757;BME280;57225;61.460;24.060;2022-07-01T06:54:18;100709.94;;;27.20;47.42
61757;BME280;57225;61.460;24.060;2022-07-01T06:57:04;100704.19;;;27.40;48.13
61757;BME280;57225;61.460;24.060;2022-07-01T06:59:49;100696.13;;;27.70;50.11
61757;BME280;57225;61.460;24.060;2022-07-01T07:02:34;100697.56;;;27.54;45.56
61757;BME280;57225;61.460;24.060;2022-07-01T07:05:19;100678.81;;;27.53;49.32
61757;BME280;57225;61.460;24.060;2022-07-01T07:08:04;100686.53;;;27.73;44.78
61757;BME280;57225;61.460;24.060;2022-07-01T07:10:49;100676.81;;;27.65;47.63
61757;BME280;57225;61.460;24.060;2022-07-01T07:13:35;100685.06;;;28.20;47.03
61757;BME280;57225;61.460;24.060;2022-07-01T07:16:20;100676.72;;;28.70;46.92
61757;BME280;57225;61.460;24.060;2022-07-01T07:19:04;100682.03;;;28.94;47.55
61757;BME280;57225;61.460;24.060;2022-07-01T07:21:49;100671.22;;;28.67;43.03
61757;BME280;57225;61.460;24.060;2022-07-01T07:24:34;100670.31;;;29.03;46.28
61757;BME280;57225;61.460;24.060;2022-07-01T07:27:19;100661.69;;;28.98;44.78
61757;BME280;57225;61.460;24.060;2022-07-01T07:30:03;100662.72;;;28.95;42.88
61757;BME280;57225;61.460;24.060;2022-07-01T07:32:48;100658.22;;;28.77;44.50
61757;BME280;57225;61.460;24.060;2022-07-01T07:35:32;100653.81;;;28.82;44.23
61757;BME280;57225;61.460;24.060;2022-07-01T07:38:17;100655.97;;;29.09;45.89
61757;BME280;57225;61.460;24.060;2022-07-01T07:41:01;100662.31;;;29.46;45.25
61757;BME280;57225;61.460;24.060;2022-07-01T07:43:48;100649.53;;;29.64;45.33
61757;BME280;57225;61.460;24.060;2022-07-01T07:46:33;100659.16;;;29.72;41.89
61757;BME280;57225;61.460;24.060;2022-07-01T07:49:17;100659.41;;;29.41;41.98
61757;BME280;57225;61.460;24.060;2022-07-01T07:52:01;100661.53;;;29.51;43.95
61757;BME280;57225;61.460;24.060;2022-07-01T07:54:46;100664.13;;;29.66;43.81
61757;BME280;57225;61.460;24.060;2022-07-01T07:57:30;100662.28;;;30.13;46.95
61757;BME280;57225;61.460;24.060;2022-07-01T08:00:16;100660.91;;;30.31;44.87
61757;BME280;57225;61.460;24.060;2022-07-01T08:03:00;100667.25;;;30.82;43.70
61757;BME280;57225;61.460;24.060;2022-07-01T08:05:44;100666.00;;;30.77;41.51
61757;BME280;57225;61.460;24.060;2022-07-01T08:08:28;100662.41;;;30.54;41.83
61757;BME280;57225;61.460;24.060;2022-07-01T08:11:13;100669.75;;;30.55;42.70
61757;BME280;57225;61.460;24.060;2022-07-01T08:13:58;100669.28;;;30.92;43.51
61757;BME280;57225;61.460;24.060;2022-07-01T08:16:42;100675.34;;;30.89;44.18
61757;BME280;57225;61.460;24.060;2022-07-01T08:19:27;100670.78;;;31.15;44.02
61757;BME280;57225;61.460;24.060;2022-07-01T08:22:11;100667.16;;;31.04;40.57
61757;BME280;57225;61.460;24.060;2022-07-01T08:24:55;100670.81;;;30.99;41.23
61757;BME280;57225;61.460;24.060;2022-07-01T08:27:40;100667.59;;;31.19;41.79
61757;BME280;57225;61.460;24.060;2022-07-01T08:30:24;100676.53;;;31.15;41.02
61757;BME280;57225;61.460;24.060;2022-07-01T08:33:09;100659.88;;;30.97;43.44
61757;BME280;57225;61.460;24.060;2022-07-01T08:35:54;100667.22;;;30.87;42.13
61757;BME280;57225;61.460;24.060;2022-07-01T08:38:38;100665.09;;;31.04;44.26
61757;BME280;57225;61.460;24.060;2022-07-01T08:41:23;100662.09;;;31.21;42.67
61757;BME280;57225;61.460;24.060;2022-07-01T08:44:07;100661.78;;;31.25;39.26
61757;BME280;57225;61.460;24.060;2022-07-01T08:46:52;100667.94;;;30.52;39.38
61757;BME280;57225;61.460;24.060;2022-07-01T08:49:36;100670.50;;;30.61;41.98
61757;BME280;57225;61.460;24.060;2022-07-01T08:52:21;100660.22;;;30.77;42.23
61757;BME280;57225;61.460;24.060;2022-07-01T08:55:05;100675.41;;;30.77;38.93
61757;BME280;57225;61.460;24.060;2022-07-01T08:57:50;100665.31;;;31.01;42.43
61757;BME280;57225;61.460;24.060;2022-07-01T09:00:35;100666.16;;;31.37;41.62
61757;BME280;57225;61.460;24.060;2022-07-01T09:03:22;100656.69;;;31.42;39.76
61757;BME280;57225;61.460;24.060;2022-07-01T09:06:17;100654.84;;;31.44;39.15
61757;BME280;57225;61.460;24.060;2022-07-01T09:09:11;100653.38;;;31.68;41.61
61757;BME280;57225;61.460;24.060;2022-07-01T09:11:56;100657.78;;;31.69;41.12
61757;BME280;57225;61.460;24.060;2022-07-01T09:14:40;100655.16;;;31.71;40.29
61757;BME280;57225;61.460;24.060;2022-07-01T09:17:26;100654.22;;;31.87;40.62
61757;BME280;57225;61.460;24.060;2022-07-01T09:20:28;100653.22;;;32.09;38.94
61757;BME280;57225;61.460;24.060;2022-07-01T09:23:18;100652.09;;;31.63;39.00
61757;BME280;57225;61.460;24.060;2022-07-01T09:26:02;100655.31;;;31.84;39.04
61757;BME280;57225;61.460;24.060;2022-07-01T09:28:57;100650.06;;;32.37;39.94
61757;BME280;57225;61.460;24.060;2022-07-01T09:31:48;100644.16;;;32.23;37.35
61757;BME280;57225;61.460;24.060;2022-07-01T09:34:45;100660.97;;;31.65;38.56
61757;BME280;57225;61.460;24.060;2022-07-01T09:37:29;100662.13;;;31.81;39.86
61757;BME280;57225;61.460;24.060;2022-07-01T09:40:14;100663.13;;;32.38;38.90
61757;BME280;57225;61.460;24.060;2022-07-01T09:43:01;100673.47;;;32.03;37.12
61757;BME280;57225;61.460;24.060;2022-07-01T09:46:15;100665.53;;;31.49;38.84
61757;BME280;57225;61.460;24.060;2022-07-01T09:48:59;100659.72;;;31.61;37.87
61757;BME280;57225;61.460;24.060;2022-07-01T09:51:44;100657.88;;;31.58;38.48
61757;BME280;57225;61.460;24.060;2022-07-01T09:54:28;100653.78;;;31.47;39.76
61757;BME280;57225;61.460;24.060;2022-07-01T09:57:14;100653.53;;;31.45;39.21
61757;BME280;57225;61.460;24.060;2022-07-01T09:59:58;100647.81;;;31.70;38.13
61757;BME280;57225;61.460;24.060;2022-07-01T10:02:43;100656.03;;;31.90;39.28
61757;BME280;57225;61.460;24.060;2022-07-01T10:05:29;100649.31;;;31.46;39.61
61757;BME280;57225;61.460;24.060;2022-07-01T10:08:50;100648.66;;;31.65;38.13
61757;BME280;57225;61.460;24.060;2022-07-01T10:14:26;100669.97;;;31.50;40.47
61757;BME280;57225;61.460;24.060;2022-07-01T10:17:29;100657.94;;;31.82;39.41
61757;BME280;57225;61.460;24.060;2022-07-01T10:20:22;100649.28;;;31.82;36.78
61757;BME280;57225;61.460;24.060;2022-07-01T10:23:07;100649.19;;;31.93;38.17
61757;BME280;57225;61.460;24.060;2022-07-01T10:25:52;100652.09;;;32.42;38.10
61757;BME280;57225;61.460;24.060;2022-07-01T10:28:41;100649.56;;;32.32;37.16
61757;BME280;57225;61.460;24.060;2022-07-01T10:31:37;100640.03;;;32.38;35.86
61757;BME280;57225;61.460;24.060;2022-07-01T10:34:23;100647.72;;;32.54;36.93
61757;BME280;57225;61.460;24.060;2022-07-01T10:37:10;100646.78;;;32.46;34.07
61757;BME280;57225;61.460;24.060;2022-07-01T10:42:58;100641.81;;;32.65;37.07
61757;BME280;57225;61.460;24.060;2022-07-01T10:45:46;100641.03;;;33.02;34.77
61757;BME280;57225;61.460;24.060;2022-07-01T10:48:32;100640.75;;;33.24;33.16
61757;BME280;57225;61.460;24.060;2022-07-01T10:51:45;100646.03;;;33.20;32.63
61757;BME280;57225;61.460;24.060;2022-07-01T10:57:36;100637.91;;;33.37;30.55
61757;BME280;57225;61.460;24.060;2022-07-01T11:03:24;100639.34;;;33.12;30.40
61757;BME280;57225;61.460;24.060;2022-07-01T11:06:08;100644.63;;;33.27;32.30
61757;BME280;57225;61.460;24.060;2022-07-01T11:08:54;100648.81;;;32.75;31.36
61757;BME280;57225;61.460;24.060;2022-07-01T11:11:38;100642.75;;;33.10;32.52
61757;BME280;57225;61.460;24.060;2022-07-01T11:14:22;100643.81;;;33.77;31.65
61757;BME280;57225;61.460;24.060;2022-07-01T11:17:08;100644.06;;;34.05;30.16
61757;BME280;57225;61.460;24.060;2022-07-01T11:19:57;100643.00;;;34.35;30.88
61757;BME280;57225;61.460;24.060;2022-07-01T11:22:42;100633.97;;;34.25;31.47
61757;BME280;57225;61.460;24.060;2022-07-01T11:25:26;100635.84;;;33.64;31.01
61757;BME280;57225;61.460;24.060;2022-07-01T11:28:11;100635.38;;;33.47;31.67
61757;BME280;57225;61.460;24.060;2022-07-01T11:31:00;100636.34;;;33.36;31.67
61757;BME280;57225;61.460;24.060;2022-07-01T11:33:49;100630.06;;;33.51;32.50
61757;BME280;57225;61.460;24.060;2022-07-01T11:36:34;100635.50;;;33.55;32.71
61757;BME280;57225;61.460;24.060;2022-07-01T11:39:37;100636.84;;;33.22;32.02
61757;BME280;57225;61.460;24.060;2022-07-01T11:42:25;100632.06;;;33.56;30.25
61757;BME280;57225;61.460;24.060;2022-07-01T11:45:30;100640.50;;;33.99;31.31
61757;BME280;57225;61.460;24.060;2022-07-01T11:51:22;100640.09;;;34.35;29.95
61757;BME280;57225;61.460;24.060;2022-07-01T11:54:07;100641.06;;;34.63;29.91
61757;BME280;57225;61.460;24.060;2022-07-01T11:57:13;100633.72;;;34.76;28.35
61757;BME280;57225;61.460;24.060;2022-07-01T12:00:08;100625.94;;;34.57;29.09
61757;BME280;57225;61.460;24.060;2022-07-01T12:02:53;100620.28;;;34.39;29.11
61757;BME280;57225;61.460;24.060;2022-07-01T12:05:38;100632.50;;;34.18;28.98
61757;BME280;57225;61.460;24.060;2022-07-01T12:08:22;100634.97;;;34.41;30.24
61757;BME280;57225;61.460;24.060;2022-07-01T12:11:07;100626.38;;;34.61;29.85
61757;BME280;57225;61.460;24.060;2022-07-01T12:13:52;100627.72;;;34.21;30.13
61757;BME280;57225;61.460;24.060;2022-07-01T12:16:40;100620.03;;;33.52;30.22
61757;BME280;57225;61.460;24.060;2022-07-01T12:19:28;100615.50;;;32.31;31.89
61757;BME280;57225;61.460;24.060;2022-07-01T12:22:24;100611.97;;;31.65;34.30
61757;BME280;57225;61.460;24.060;2022-07-01T12:25:10;100597.53;;;31.00;33.84
61757;BME280;57225;61.460;24.060;2022-07-01T12:27:55;100604.69;;;30.88;34.53
61757;BME280;57225;61.460;24.060;2022-07-01T12:30:41;100605.09;;;30.62;35.55
61757;BME280;57225;61.460;24.060;2022-07-01T12:33:26;100605.88;;;30.62;35.83
61757;BME280;57225;61.460;24.060;2022-07-01T12:36:10;100603.31;;;30.53;35.35
61757;BME280;57225;61.460;24.060;2022-07-01T12:39:06;100609.66;;;30.35;36.33
61757;BME280;57225;61.460;24.060;2022-07-01T12:41:50;100608.69;;;30.16;36.10
61757;BME280;57225;61.460;24.060;2022-07-01T12:44:44;100596.97;;;29.91;35.28
61757;BME280;57225;61.460;24.060;2022-07-01T12:47:34;100603.22;;;29.90;37.31
61757;BME280;57225;61.460;24.060;2022-07-01T12:50:22;100602.72;;;29.80;36.97
61757;BME280;57225;61.460;24.060;2022-07-01T12:53:18;100605.59;;;29.91;37.62
61757;BME280;57225;61.460;24.060;2022-07-01T12:56:05;100602.06;;;30.32;37.77
61757;BME280;57225;61.460;24.060;2022-07-01T12:58:49;100596.22;;;31.36;36.03
61757;BME280;57225;61.460;24.060;2022-07-01T13:01:36;100589.44;;;31.64;33.49
61757;BME280;57225;61.460;24.060;2022-07-01T13:04:27;100589.94;;;31.92;35.13
61757;BME280;57225;61.460;24.060;2022-07-01T13:07:11;100589.63;;;32.20;34.13
61757;BME280;57225;61.460;24.060;2022-07-01T13:09:56;100594.56;;;32.68;31.76
61757;BME280;57225;61.460;24.060;2022-07-01T13:12:41;100590.75;;;33.10;33.04
61757;BME280;57225;61.460;24.060;2022-07-01T13:15:25;100599.00;;;33.38;32.57
61757;BME280;57225;61.460;24.060;2022-07-01T13:18:09;100595.78;;;32.72;32.05
61757;BME280;57225;61.460;24.060;2022-07-01T13:20:54;100598.94;;;32.31;32.66
61757;BME280;57225;61.460;24.060;2022-07-01T13:23:39;100581.22;;;31.98;33.23
61757;BME280;57225;61.460;24.060;2022-07-01T13:26:23;100578.28;;;31.79;34.43
61757;BME280;57225;61.460;24.060;2022-07-01T13:29:08;100581.81;;;31.36;35.40
61757;BME280;57225;61.460;24.060;2022-07-01T13:31:52;100579.16;;;30.67;34.05
61757;BME280;57225;61.460;24.060;2022-07-01T13:34:36;100573.56;;;30.34;37.52
61757;BME280;57225;61.460;24.060;2022-07-01T13:37:20;100565.72;;;30.29;36.68
61757;BME280;57225;61.460;24.060;2022-07-01T13:40:06;100569.75;;;30.09;38.76
61757;BME280;57225;61.460;24.060;2022-07-01T13:42:50;100569.75;;;29.98;37.94
61757;BME280;57225;61.460;24.060;2022-07-01T13:45:35;100570.28;;;30.02;37.97
61757;BME280;57225;61.460;24.060;2022-07-01T13:48:19;100570.81;;;30.01;40.10
61757;BME280;57225;61.460;24.060;2022-07-01T13:51:04;100552.56;;;29.81;37.63
61757;BME280;57225;61.460;24.060;2022-07-01T13:53:48;100565.34;;;29.80;38.97
61757;BME280;57225;61.460;24.060;2022-07-01T13:56:32;100560.34;;;29.97;39.52
61757;BME280;57225;61.460;24.060;2022-07-01T13:59:17;100554.59;;;30.09;37.40
61757;BME280;57225;61.460;24.060;2022-07-01T14:02:02;100560.38;;;29.86;37.06
61757;BME280;57225;61.460;24.060;2022-07-01T14:04:48;100558.00;;;29.85;37.84
61757;BME280;57225;61.460;24.060;2022-07-01T14:07:32;100552.69;;;30.17;40.23
61757;BME280;57225;61.460;24.060;2022-07-01T14:10:17;100554.69;;;30.38;38.46
61757;BME280;57225;61.460;24.060;2022-07-01T14:13:01;100550.00;;;30.41;37.95
61757;BME280;57225;61.460;24.060;2022-07-01T14:15:46;100556.03;;;30.32;37.38
61757;BME280;57225;61.460;24.060;2022-07-01T14:18:34;100547.56;;;29.98;35.97
61757;BME280;57225;61.460;24.060;2022-07-01T14:21:19;100555.97;;;29.74;38.93
61757;BME280;57225;61.460;24.060;2022-07-01T14:24:05;100535.06;;;29.68;39.17
61757;BME280;57225;61.460;24.060;2022-07-01T14:26:49;100539.25;;;29.73;38.23
61757;BME280;57225;61.460;24.060;2022-07-01T14:29:34;100546.06;;;29.64;38.75
61757;BME280;57225;61.460;24.060;2022-07-01T14:32:18;100554.72;;;29.58;38.38